sensor_id;sensor_type;location;lat;lon;timestamp;P1;durP1;ratioP1;P2;durP2;ratioP2
72920;SDS011;61064;51.654;5.476;2023-05-14T00:00:12;13.77;;;6.97;;
72920;SDS011;61064;51.654;5.476;2023-05-14T00:02:38;11.27;;;7.05;;
72920;SDS011;61064;51.654;5.476;2023-05-14T00:05:04;10.67;;;7.20;;
72920;SDS011;61064;51.654;5.476;2023-05-14T00:07:30;12.40;;;7.67;;
72920;SDS011;61064;51.654;5.476;2023-05-14T00:09:56;10.90;;;7.07;;
72920;SDS011;61064;51.654;5.476;2023-05-14T00:12:22;11.75;;;6.97;;
72920;SDS011;61064;51.654;5.476;2023-05-14T00:14:47;12.60;;;7.63;;
72920;SDS011;61064;51.654;5.476;2023-05-14T00:17:15;12.83;;;7.60;;
72920;SDS011;61064;51.654;5.476;2023-05-14T00:19:41;12.15;;;7.32;;
72920;SDS011;61064;51.654;5.476;2023-05-14T00:22:09;11.75;;;7.53;;
72920;SDS011;61064;51.654;5.476;2023-05-14T00:24:35;12.80;;;7.90;;
72920;SDS011;61064;51.654;5.476;2023-05-14T00:27:01;13.65;;;8.15;;
72920;SDS011;61064;51.654;5.476;2023-05-14T00:29:28;14.45;;;8.20;;
72920;SDS011;61064;51.654;5.476;2023-05-14T00:31:53;15.20;;;8.53;;
72920;SDS011;61064;51.654;5.476;2023-05-14T00:34:19;12.77;;;7.87;;
72920;SDS011;61064;51.654;5.476;2023-05-14T00:36:44;13.53;;;8.40;;
72920;SDS011;61064;51.654;5.476;2023-05-14T00:39:10;13.23;;;7.77;;
72920;SDS011;61064;51.654;5.476;2023-05-14T00:41:35;14.50;;;8.75;;
72920;SDS011;61064;51.654;5.476;2023-05-14T00:44:01;13.90;;;8.40;;
72920;SDS011;61064;51.654;5.476;2023-05-14T00:46:26;13.80;;;8.70;;
72920;SDS011;61064;51.654;5.476;2023-05-14T00:48:52;13.17;;;8.57;;
72920;SDS011;61064;51.654;5.476;2023-05-14T00:51:27;14.48;;;8.60;;
72920;SDS011;61064;51.654;5.476;2023-05-14T00:53:56;14.70;;;9.10;;
72920;SDS011;61064;51.654;5.476;2023-05-14T00:56:21;13.52;;;8.63;;
72920;SDS011;61064;51.654;5.476;2023-05-14T00:58:47;14.87;;;8.70;;
72920;SDS011;61064;51.654;5.476;2023-05-14T01:01:13;16.17;;;9.52;;
72920;SDS011;61064;51.654;5.476;2023-05-14T01:03:39;17.43;;;9.57;;
72920;SDS011;61064;51.654;5.476;2023-05-14T01:11:29;13.93;;;9.13;;
72920;SDS011;61064;51.654;5.476;2023-05-14T01:16:34;15.27;;;9.57;;
72920;SDS011;61064;51.654;5.476;2023-05-14T01:19:03;19.42;;;10.20;;
72920;SDS011;61064;51.654;5.476;2023-05-14T01:23:59;17.30;;;9.70;;
72920;SDS011;61064;51.654;5.476;2023-05-14T01:26:28;14.93;;;10.23;;
72920;SDS011;61064;51.654;5.476;2023-05-14T01:29:18;15.68;;;10.30;;
72920;SDS011;61064;51.654;5.476;2023-05-14T01:31:48;16.45;;;10.77;;
72920;SDS011;61064;51.654;5.476;2023-05-14T01:34:15;16.67;;;11.10;;
72920;SDS011;61064;51.654;5.476;2023-05-14T01:36:45;16.90;;;11.30;;
72920;SDS011;61064;51.654;5.476;2023-05-14T01:39:12;16.98;;;11.00;;
72920;SDS011;61064;51.654;5.476;2023-05-14T01:41:39;16.35;;;11.25;;
72920;SDS011;61064;51.654;5.476;2023-05-14T01:44:10;16.90;;;10.20;;
72920;SDS011;61064;51.654;5.476;2023-05-14T01:46:39;17.98;;;11.45;;
72920;SDS011;61064;51.654;5.476;2023-05-14T01:49:07;16.97;;;10.80;;
72920;SDS011;61064;51.654;5.476;2023-05-14T01:51:33;19.17;;;10.80;;
72920;SDS011;61064;51.654;5.476;2023-05-14T01:53:58;17.20;;;10.53;;
72920;SDS011;61064;51.654;5.476;2023-05-14T01:56:26;16.23;;;11.18;;
72920;SDS011;61064;51.654;5.476;2023-05-14T01:58:51;18.17;;;11.10;;
72920;SDS011;61064;51.654;5.476;2023-05-14T02:01:17;19.10;;;10.63;;
72920;SDS011;61064;51.654;5.476;2023-05-14T02:03:45;17.10;;;10.73;;
72920;SDS011;61064;51.654;5.476;2023-05-14T02:06:11;17.77;;;11.80;;
72920;SDS011;61064;51.654;5.476;2023-05-14T02:08:36;18.00;;;11.00;;
72920;SDS011;61064;51.654;5.476;2023-05-14T02:11:04;17.40;;;11.52;;
72920;SDS011;61064;51.654;5.476;2023-05-14T02:13:29;16.87;;;11.33;;
72920;SDS011;61064;51.654;5.476;2023-05-14T02:15:54;18.80;;;11.37;;
72920;SDS011;61064;51.654;5.476;2023-05-14T02:18:20;18.27;;;11.10;;
72920;SDS011;61064;51.654;5.476;2023-05-14T02:20:45;17.40;;;10.70;;
72920;SDS011;61064;51.654;5.476;2023-05-14T02:23:11;18.10;;;11.47;;
72920;SDS011;61064;51.654;5.476;2023-05-14T02:25:36;16.52;;;11.25;;
72920;SDS011;61064;51.654;5.476;2023-05-14T02:28:02;17.40;;;11.97;;
72920;SDS011;61064;51.654;5.476;2023-05-14T02:30:27;20.27;;;11.10;;
72920;SDS011;61064;51.654;5.476;2023-05-14T02:32:54;19.23;;;10.98;;
72920;SDS011;61064;51.654;5.476;2023-05-14T02:35:19;18.67;;;11.17;;
72920;SDS011;61064;51.654;5.476;2023-05-14T02:37:44;16.73;;;10.77;;
72920;SDS011;61064;51.654;5.476;2023-05-14T02:40:10;18.13;;;11.43;;
72920;SDS011;61064;51.654;5.476;2023-05-14T02:42:35;18.70;;;11.30;;
72920;SDS011;61064;51.654;5.476;2023-05-14T02:45:00;18.25;;;12.05;;
72920;SDS011;61064;51.654;5.476;2023-05-14T02:47:26;19.30;;;12.47;;
72920;SDS011;61064;51.654;5.476;2023-05-14T02:49:51;20.97;;;13.00;;
72920;SDS011;61064;51.654;5.476;2023-05-14T02:52:16;19.27;;;12.17;;
72920;SDS011;61064;51.654;5.476;2023-05-14T02:54:45;20.05;;;13.07;;
72920;SDS011;61064;51.654;5.476;2023-05-14T02:57:13;19.95;;;12.35;;
72920;SDS011;61064;51.654;5.476;2023-05-14T02:59:44;21.47;;;13.00;;
72920;SDS011;61064;51.654;5.476;2023-05-14T03:02:10;20.50;;;12.77;;
72920;SDS011;61064;51.654;5.476;2023-05-14T03:04:38;17.67;;;12.10;;
72920;SDS011;61064;51.654;5.476;2023-05-14T03:07:05;21.60;;;13.07;;
72920;SDS011;61064;51.654;5.476;2023-05-14T03:09:34;19.63;;;13.35;;
72920;SDS011;61064;51.654;5.476;2023-05-14T03:12:02;17.77;;;12.47;;
72920;SDS011;61064;51.654;5.476;2023-05-14T03:14:27;21.05;;;12.48;;
72920;SDS011;61064;51.654;5.476;2023-05-14T03:16:52;22.47;;;13.17;;
72920;SDS011;61064;51.654;5.476;2023-05-14T03:19:18;20.70;;;13.03;;
72920;SDS011;61064;51.654;5.476;2023-05-14T03:21:45;20.07;;;13.33;;
72920;SDS011;61064;51.654;5.476;2023-05-14T03:24:11;23.52;;;13.40;;
72920;SDS011;61064;51.654;5.476;2023-05-14T03:26:39;19.85;;;12.88;;
72920;SDS011;61064;51.654;5.476;2023-05-14T03:29:06;21.70;;;12.90;;
72920;SDS011;61064;51.654;5.476;2023-05-14T03:31:34;22.10;;;12.73;;
72920;SDS011;61064;51.654;5.476;2023-05-14T03:33:59;24.77;;;13.80;;
72920;SDS011;61064;51.654;5.476;2023-05-14T03:36:25;23.20;;;13.17;;
72920;SDS011;61064;51.654;5.476;2023-05-14T03:38:51;22.92;;;13.55;;
72920;SDS011;61064;51.654;5.476;2023-05-14T03:41:16;23.43;;;13.50;;
72920;SDS011;61064;51.654;5.476;2023-05-14T03:43:43;21.98;;;13.73;;
72920;SDS011;61064;51.654;5.476;2023-05-14T03:46:09;25.07;;;13.43;;
72920;SDS011;61064;51.654;5.476;2023-05-14T03:48:34;22.27;;;13.33;;
72920;SDS011;61064;51.654;5.476;2023-05-14T03:51:01;17.85;;;11.93;;
72920;SDS011;61064;51.654;5.476;2023-05-14T03:53:27;21.00;;;13.30;;
72920;SDS011;61064;51.654;5.476;2023-05-14T03:55:52;21.73;;;13.17;;
72920;SDS011;61064;51.654;5.476;2023-05-14T03:58:17;22.02;;;12.90;;
72920;SDS011;61064;51.654;5.476;2023-05-14T04:00:43;24.77;;;13.87;;
72920;SDS011;61064;51.654;5.476;2023-05-14T04:03:14;21.23;;;13.07;;
72920;SDS011;61064;51.654;5.476;2023-05-14T04:05:40;21.30;;;12.73;;
72920;SDS011;61064;51.654;5.476;2023-05-14T04:08:06;22.87;;;13.03;;
72920;SDS011;61064;51.654;5.476;2023-05-14T04:10:34;23.70;;;13.10;;
72920;SDS011;61064;51.654;5.476;2023-05-14T04:13:00;22.73;;;13.93;;
72920;SDS011;61064;51.654;5.476;2023-05-14T04:15:25;23.40;;;13.45;;
72920;SDS011;61064;51.654;5.476;2023-05-14T04:17:51;22.70;;;13.43;;
72920;SDS011;61064;51.654;5.476;2023-05-14T04:20:16;21.93;;;12.83;;
72920;SDS011;61064;51.654;5.476;2023-05-14T04:22:42;24.25;;;14.65;;
72920;SDS011;61064;51.654;5.476;2023-05-14T04:25:07;22.47;;;14.17;;
72920;SDS011;61064;51.654;5.476;2023-05-14T04:27:32;24.63;;;13.60;;
72920;SDS011;61064;51.654;5.476;2023-05-14T04:29:58;24.20;;;14.32;;
72920;SDS011;61064;51.654;5.476;2023-05-14T04:32:24;23.47;;;14.00;;
72920;SDS011;61064;51.654;5.476;2023-05-14T04:34:49;23.27;;;14.10;;
72920;SDS011;61064;51.654;5.476;2023-05-14T04:37:15;24.50;;;13.23;;
72920;SDS011;61064;51.654;5.476;2023-05-14T04:39:44;20.37;;;13.90;;
72920;SDS011;61064;51.654;5.476;2023-05-14T04:42:10;24.50;;;14.60;;
72920;SDS011;61064;51.654;5.476;2023-05-14T04:44:35;24.73;;;13.67;;
72920;SDS011;61064;51.654;5.476;2023-05-14T04:47:02;24.15;;;14.05;;
72920;SDS011;61064;51.654;5.476;2023-05-14T04:49:27;22.08;;;13.38;;
72920;SDS011;61064;51.654;5.476;2023-05-14T04:51:53;25.27;;;14.70;;
72920;SDS011;61064;51.654;5.476;2023-05-14T04:54:22;24.50;;;13.37;;
72920;SDS011;61064;51.654;5.476;2023-05-14T04:56:54;25.05;;;14.20;;
72920;SDS011;61064;51.654;5.476;2023-05-14T04:59:20;23.80;;;14.00;;
72920;SDS011;61064;51.654;5.476;2023-05-14T05:01:46;22.85;;;13.25;;
72920;SDS011;61064;51.654;5.476;2023-05-14T05:04:13;23.17;;;13.57;;
72920;SDS011;61064;51.654;5.476;2023-05-14T05:06:38;23.40;;;14.23;;
72920;SDS011;61064;51.654;5.476;2023-05-14T05:09:04;25.07;;;13.90;;
72920;SDS011;61064;51.654;5.476;2023-05-14T05:11:29;24.33;;;14.47;;
72920;SDS011;61064;51.654;5.476;2023-05-14T05:13:54;23.40;;;13.00;;
72920;SDS011;61064;51.654;5.476;2023-05-14T05:16:20;23.33;;;12.77;;
72920;SDS011;61064;51.654;5.476;2023-05-14T05:18:45;24.77;;;13.50;;
72920;SDS011;61064;51.654;5.476;2023-05-14T05:21:10;26.47;;;12.43;;
72920;SDS011;61064;51.654;5.476;2023-05-14T05:23:36;23.70;;;12.13;;
72920;SDS011;61064;51.654;5.476;2023-05-14T05:26:01;22.08;;;13.52;;
72920;SDS011;61064;51.654;5.476;2023-05-14T05:28:26;24.13;;;12.50;;
72920;SDS011;61064;51.654;5.476;2023-05-14T05:30:52;22.20;;;11.80;;
72920;SDS011;61064;51.654;5.476;2023-05-14T05:33:17;22.57;;;13.00;;
72920;SDS011;61064;51.654;5.476;2023-05-14T05:35:43;24.02;;;12.38;;
72920;SDS011;61064;51.654;5.476;2023-05-14T05:38:09;21.07;;;12.50;;
72920;SDS011;61064;51.654;5.476;2023-05-14T05:40:34;21.60;;;12.33;;
72920;SDS011;61064;51.654;5.476;2023-05-14T05:42:59;20.10;;;11.43;;
72920;SDS011;61064;51.654;5.476;2023-05-14T05:45:25;20.23;;;11.50;;
72920;SDS011;61064;51.654;5.476;2023-05-14T05:47:50;21.60;;;12.77;;
72920;SDS011;61064;51.654;5.476;2023-05-14T05:50:15;20.13;;;11.60;;
72920;SDS011;61064;51.654;5.476;2023-05-14T05:52:41;22.00;;;11.97;;
72920;SDS011;61064;51.654;5.476;2023-05-14T05:55:06;20.23;;;11.88;;
72920;SDS011;61064;51.654;5.476;2023-05-14T05:57:32;21.87;;;12.50;;
72920;SDS011;61064;51.654;5.476;2023-05-14T05:59:57;22.67;;;12.30;;
72920;SDS011;61064;51.654;5.476;2023-05-14T06:02:23;22.00;;;11.60;;
72920;SDS011;61064;51.654;5.476;2023-05-14T06:04:49;21.40;;;11.90;;
72920;SDS011;61064;51.654;5.476;2023-05-14T06:07:15;20.97;;;11.37;;
72920;SDS011;61064;51.654;5.476;2023-05-14T06:09:40;23.03;;;11.83;;
72920;SDS011;61064;51.654;5.476;2023-05-14T06:12:06;20.47;;;11.47;;
72920;SDS011;61064;51.654;5.476;2023-05-14T06:14:31;23.48;;;12.18;;
72920;SDS011;61064;51.654;5.476;2023-05-14T06:16:57;22.27;;;11.83;;
72920;SDS011;61064;51.654;5.476;2023-05-14T06:19:22;19.50;;;11.70;;
72920;SDS011;61064;51.654;5.476;2023-05-14T06:21:48;21.13;;;11.60;;
72920;SDS011;61064;51.654;5.476;2023-05-14T06:24:13;23.10;;;12.00;;
72920;SDS011;61064;51.654;5.476;2023-05-14T06:26:40;19.37;;;11.07;;
72920;SDS011;61064;51.654;5.476;2023-05-14T06:29:05;22.27;;;12.10;;
72920;SDS011;61064;51.654;5.476;2023-05-14T06:31:31;20.83;;;11.47;;
72920;SDS011;61064;51.654;5.476;2023-05-14T06:33:56;20.57;;;12.30;;
72920;SDS011;61064;51.654;5.476;2023-05-14T06:36:21;21.27;;;11.53;;
72920;SDS011;61064;51.654;5.476;2023-05-14T06:38:47;21.80;;;12.93;;
72920;SDS011;61064;51.654;5.476;2023-05-14T06:41:12;19.97;;;11.87;;
72920;SDS011;61064;51.654;5.476;2023-05-14T06:43:37;19.50;;;11.18;;
72920;SDS011;61064;51.654;5.476;2023-05-14T06:46:03;21.80;;;11.53;;
72920;SDS011;61064;51.654;5.476;2023-05-14T06:48:29;19.67;;;11.77;;
72920;SDS011;61064;51.654;5.476;2023-05-14T06:50:54;19.60;;;11.23;;
72920;SDS011;61064;51.654;5.476;2023-05-14T06:53:20;21.50;;;12.17;;
72920;SDS011;61064;51.654;5.476;2023-05-14T06:55:48;19.07;;;11.40;;
72920;SDS011;61064;51.654;5.476;2023-05-14T06:58:14;20.00;;;11.27;;
72920;SDS011;61064;51.654;5.476;2023-05-14T07:00:40;18.10;;;10.93;;
72920;SDS011;61064;51.654;5.476;2023-05-14T07:03:05;19.83;;;11.55;;
72920;SDS011;61064;51.654;5.476;2023-05-14T07:05:31;19.67;;;11.10;;
72920;SDS011;61064;51.654;5.476;2023-05-14T07:07:56;18.80;;;11.50;;
72920;SDS011;61064;51.654;5.476;2023-05-14T07:10:24;19.02;;;10.95;;
72920;SDS011;61064;51.654;5.476;2023-05-14T07:12:51;18.20;;;11.27;;
72920;SDS011;61064;51.654;5.476;2023-05-14T07:15:16;18.80;;;10.65;;
72920;SDS011;61064;51.654;5.476;2023-05-14T07:17:42;18.43;;;10.70;;
72920;SDS011;61064;51.654;5.476;2023-05-14T07:20:07;18.92;;;11.35;;
72920;SDS011;61064;51.654;5.476;2023-05-14T07:22:33;17.13;;;10.47;;
72920;SDS011;61064;51.654;5.476;2023-05-14T07:24:59;19.67;;;10.38;;
72920;SDS011;61064;51.654;5.476;2023-05-14T07:27:24;18.03;;;10.47;;
72920;SDS011;61064;51.654;5.476;2023-05-14T07:29:49;24.47;;;13.57;;
72920;SDS011;61064;51.654;5.476;2023-05-14T07:32:15;17.97;;;11.30;;
72920;SDS011;61064;51.654;5.476;2023-05-14T07:34:40;20.55;;;10.80;;
72920;SDS011;61064;51.654;5.476;2023-05-14T07:37:06;17.40;;;10.73;;
72920;SDS011;61064;51.654;5.476;2023-05-14T07:39:31;18.27;;;10.27;;
72920;SDS011;61064;51.654;5.476;2023-05-14T07:41:57;19.52;;;10.80;;
72920;SDS011;61064;51.654;5.476;2023-05-14T07:44:22;18.60;;;10.37;;
72920;SDS011;61064;51.654;5.476;2023-05-14T07:46:47;16.87;;;10.40;;
72920;SDS011;61064;51.654;5.476;2023-05-14T07:49:13;16.80;;;10.27;;
72920;SDS011;61064;51.654;5.476;2023-05-14T07:51:38;19.30;;;10.53;;
72920;SDS011;61064;51.654;5.476;2023-05-14T07:54:03;17.33;;;10.63;;
72920;SDS011;61064;51.654;5.476;2023-05-14T07:56:29;18.50;;;11.38;;
72920;SDS011;61064;51.654;5.476;2023-05-14T07:58:54;19.17;;;10.73;;
72920;SDS011;61064;51.654;5.476;2023-05-14T08:01:20;16.77;;;10.60;;
72920;SDS011;61064;51.654;5.476;2023-05-14T08:03:46;19.13;;;10.18;;
72920;SDS011;61064;51.654;5.476;2023-05-14T08:06:12;15.87;;;10.07;;
72920;SDS011;61064;51.654;5.476;2023-05-14T08:08:37;15.37;;;9.50;;
72920;SDS011;61064;51.654;5.476;2023-05-14T08:11:02;18.07;;;9.60;;
72920;SDS011;61064;51.654;5.476;2023-05-14T08:13:28;16.37;;;9.10;;
72920;SDS011;61064;51.654;5.476;2023-05-14T08:15:54;17.30;;;10.20;;
72920;SDS011;61064;51.654;5.476;2023-05-14T08:18:19;16.52;;;9.32;;
72920;SDS011;61064;51.654;5.476;2023-05-14T08:20:45;19.07;;;9.90;;
72920;SDS011;61064;51.654;5.476;2023-05-14T08:23:11;15.70;;;9.27;;
72920;SDS011;61064;51.654;5.476;2023-05-14T08:25:36;15.53;;;9.83;;
72920;SDS011;61064;51.654;5.476;2023-05-14T08:28:01;16.63;;;10.17;;
72920;SDS011;61064;51.654;5.476;2023-05-14T08:30:27;15.87;;;9.07;;
72920;SDS011;61064;51.654;5.476;2023-05-14T08:32:52;15.00;;;8.77;;
72920;SDS011;61064;51.654;5.476;2023-05-14T08:35:18;12.97;;;8.83;;
72920;SDS011;61064;51.654;5.476;2023-05-14T08:37:43;15.40;;;9.00;;
72920;SDS011;61064;51.654;5.476;2023-05-14T08:40:09;17.85;;;9.30;;
72920;SDS011;61064;51.654;5.476;2023-05-14T08:42:37;14.60;;;8.68;;
72920;SDS011;61064;51.654;5.476;2023-05-14T08:45:05;19.63;;;11.80;;
72920;SDS011;61064;51.654;5.476;2023-05-14T08:47:48;16.42;;;9.50;;
72920;SDS011;61064;51.654;5.476;2023-05-14T08:50:14;14.25;;;8.75;;
72920;SDS011;61064;51.654;5.476;2023-05-14T08:52:40;17.48;;;8.60;;
72920;SDS011;61064;51.654;5.476;2023-05-14T08:55:06;15.05;;;8.55;;
72920;SDS011;61064;51.654;5.476;2023-05-14T08:57:33;14.87;;;8.50;;
72920;SDS011;61064;51.654;5.476;2023-05-14T09:00:00;14.85;;;8.27;;
72920;SDS011;61064;51.654;5.476;2023-05-14T09:02:27;14.35;;;8.23;;
72920;SDS011;61064;51.654;5.476;2023-05-14T09:04:56;17.30;;;8.43;;
72920;SDS011;61064;51.654;5.476;2023-05-14T09:07:24;14.45;;;8.15;;
72920;SDS011;61064;51.654;5.476;2023-05-14T09:09:53;15.17;;;8.53;;
72920;SDS011;61064;51.654;5.476;2023-05-14T09:12:19;15.18;;;7.85;;
72920;SDS011;61064;51.654;5.476;2023-05-14T09:14:45;13.25;;;8.10;;
72920;SDS011;61064;51.654;5.476;2023-05-14T09:17:11;13.25;;;8.00;;
72920;SDS011;61064;51.654;5.476;2023-05-14T09:19:40;15.00;;;7.77;;
72920;SDS011;61064;51.654;5.476;2023-05-14T09:22:08;15.35;;;7.60;;
72920;SDS011;61064;51.654;5.476;2023-05-14T09:24:37;12.27;;;7.40;;
72920;SDS011;61064;51.654;5.476;2023-05-14T09:27:03;13.50;;;7.93;;
72920;SDS011;61064;51.654;5.476;2023-05-14T09:29:30;15.63;;;8.20;;
72920;SDS011;61064;51.654;5.476;2023-05-14T09:31:56;11.73;;;7.50;;
72920;SDS011;61064;51.654;5.476;2023-05-14T09:36:50;12.15;;;7.15;;
72920;SDS011;61064;51.654;5.476;2023-05-14T09:39:21;13.63;;;7.20;;
72920;SDS011;61064;51.654;5.476;2023-05-14T09:41:47;11.95;;;7.03;;
72920;SDS011;61064;51.654;5.476;2023-05-14T09:44:13;16.20;;;7.03;;
72920;SDS011;61064;51.654;5.476;2023-05-14T09:46:39;13.27;;;6.85;;
72920;SDS011;61064;51.654;5.476;2023-05-14T09:49:04;15.63;;;7.73;;
72920;SDS011;61064;51.654;5.476;2023-05-14T09:51:29;14.60;;;7.33;;
72920;SDS011;61064;51.654;5.476;2023-05-14T09:53:55;12.25;;;6.90;;
72920;SDS011;61064;51.654;5.476;2023-05-14T09:56:21;15.57;;;7.40;;
72920;SDS011;61064;51.654;5.476;2023-05-14T09:58:47;10.63;;;6.78;;
72920;SDS011;61064;51.654;5.476;2023-05-14T10:01:13;11.93;;;6.70;;
72920;SDS011;61064;51.654;5.476;2023-05-14T10:03:42;10.43;;;6.45;;
72920;SDS011;61064;51.654;5.476;2023-05-14T10:06:08;11.98;;;6.65;;
72920;SDS011;61064;51.654;5.476;2023-05-14T10:08:37;12.60;;;7.17;;
72920;SDS011;61064;51.654;5.476;2023-05-14T10:11:07;14.68;;;6.50;;
72920;SDS011;61064;51.654;5.476;2023-05-14T10:13:38;13.05;;;6.80;;
72920;SDS011;61064;51.654;5.476;2023-05-14T10:18:42;12.00;;;6.53;;
72920;SDS011;61064;51.654;5.476;2023-05-14T10:21:12;12.20;;;6.20;;
72920;SDS011;61064;51.654;5.476;2023-05-14T10:23:39;13.38;;;6.78;;
72920;SDS011;61064;51.654;5.476;2023-05-14T10:26:05;12.32;;;6.70;;
72920;SDS011;61064;51.654;5.476;2023-05-14T10:28:31;10.55;;;6.43;;
72920;SDS011;61064;51.654;5.476;2023-05-14T10:30:58;10.47;;;5.50;;
72920;SDS011;61064;51.654;5.476;2023-05-14T10:33:24;11.68;;;5.88;;
72920;SDS011;61064;51.654;5.476;2023-05-14T10:36:03;13.77;;;6.20;;
72920;SDS011;61064;51.654;5.476;2023-05-14T10:38:33;13.10;;;6.40;;
72920;SDS011;61064;51.654;5.476;2023-05-14T10:41:03;12.25;;;5.72;;
72920;SDS011;61064;51.654;5.476;2023-05-14T10:43:35;16.27;;;5.80;;
72920;SDS011;61064;51.654;5.476;2023-05-14T10:46:05;10.17;;;5.23;;
72920;SDS011;61064;51.654;5.476;2023-05-14T10:48:31;11.90;;;5.22;;
72920;SDS011;61064;51.654;5.476;2023-05-14T10:50:58;9.95;;;5.28;;
72920;SDS011;61064;51.654;5.476;2023-05-14T10:53:57;10.80;;;5.07;;
72920;SDS011;61064;51.654;5.476;2023-05-14T10:56:16;9.68;;;5.03;;
72920;SDS011;61064;51.654;5.476;2023-05-14T10:58:42;11.60;;;4.63;;
72920;SDS011;61064;51.654;5.476;2023-05-14T11:01:12;10.77;;;5.00;;
72920;SDS011;61064;51.654;5.476;2023-05-14T11:03:41;9.57;;;5.07;;
72920;SDS011;61064;51.654;5.476;2023-05-14T11:06:11;8.45;;;4.75;;
72920;SDS011;61064;51.654;5.476;2023-05-14T11:08:39;7.82;;;4.55;;
72920;SDS011;61064;51.654;5.476;2023-05-14T11:11:05;10.73;;;4.73;;
72920;SDS011;61064;51.654;5.476;2023-05-14T11:13:31;9.80;;;3.92;;
72920;SDS011;61064;51.654;5.476;2023-05-14T11:16:01;8.18;;;4.25;;
72920;SDS011;61064;51.654;5.476;2023-05-14T11:18:30;8.43;;;4.30;;
72920;SDS011;61064;51.654;5.476;2023-05-14T11:21:04;8.65;;;3.95;;
72920;SDS011;61064;51.654;5.476;2023-05-14T11:23:30;9.17;;;4.00;;
72920;SDS011;61064;51.654;5.476;2023-05-14T11:26:36;8.60;;;4.00;;
72920;SDS011;61064;51.654;5.476;2023-05-14T11:29:03;11.73;;;4.50;;
72920;SDS011;61064;51.654;5.476;2023-05-14T11:31:29;11.70;;;4.30;;
72920;SDS011;61064;51.654;5.476;2023-05-14T11:33:54;8.85;;;4.15;;
72920;SDS011;61064;51.654;5.476;2023-05-14T11:36:20;7.73;;;3.67;;
72920;SDS011;61064;51.654;5.476;2023-05-14T11:38:46;10.85;;;4.80;;
72920;SDS011;61064;51.654;5.476;2023-05-14T11:41:13;9.27;;;3.42;;
72920;SDS011;61064;51.654;5.476;2023-05-14T11:43:41;7.55;;;4.00;;
72920;SDS011;61064;51.654;5.476;2023-05-14T11:46:14;7.97;;;4.00;;
72920;SDS011;61064;51.654;5.476;2023-05-14T11:48:44;8.85;;;4.03;;
72920;SDS011;61064;51.654;5.476;2023-05-14T11:51:10;6.95;;;3.53;;
72920;SDS011;61064;51.654;5.476;2023-05-14T11:53:35;7.90;;;3.63;;
72920;SDS011;61064;51.654;5.476;2023-05-14T11:56:01;8.60;;;3.80;;
72920;SDS011;61064;51.654;5.476;2023-05-14T11:58:27;10.40;;;3.20;;
72920;SDS011;61064;51.654;5.476;2023-05-14T12:00:57;9.88;;;3.65;;
72920;SDS011;61064;51.654;5.476;2023-05-14T12:03:24;7.55;;;3.45;;
72920;SDS011;61064;51.654;5.476;2023-05-14T12:05:56;8.83;;;3.83;;
72920;SDS011;61064;51.654;5.476;2023-05-14T12:08:27;9.02;;;3.45;;
72920;SDS011;61064;51.654;5.476;2023-05-14T12:10:54;8.50;;;3.13;;
72920;SDS011;61064;51.654;5.476;2023-05-14T12:13:23;8.07;;;3.25;;
72920;SDS011;61064;51.654;5.476;2023-05-14T12:15:54;8.60;;;3.20;;
72920;SDS011;61064;51.654;5.476;2023-05-14T12:18:24;9.67;;;3.27;;
72920;SDS011;61064;51.654;5.476;2023-05-14T12:20:52;7.88;;;3.40;;
72920;SDS011;61064;51.654;5.476;2023-05-14T12:23:24;9.97;;;3.20;;
72920;SDS011;61064;51.654;5.476;2023-05-14T12:25:51;8.40;;;3.10;;
72920;SDS011;61064;51.654;5.476;2023-05-14T12:28:17;6.90;;;3.00;;
72920;SDS011;61064;51.654;5.476;2023-05-14T12:30:44;9.18;;;3.28;;
72920;SDS011;61064;51.654;5.476;2023-05-14T12:33:13;7.60;;;3.78;;
72920;SDS011;61064;51.654;5.476;2023-05-14T12:35:39;8.70;;;3.80;;
72920;SDS011;61064;51.654;5.476;2023-05-14T12:38:05;7.35;;;3.40;;
72920;SDS011;61064;51.654;5.476;2023-05-14T12:40:33;6.20;;;2.80;;
72920;SDS011;61064;51.654;5.476;2023-05-14T12:42:58;8.13;;;4.10;;
72920;SDS011;61064;51.654;5.476;2023-05-14T12:45:24;7.33;;;3.90;;
72920;SDS011;61064;51.654;5.476;2023-05-14T12:47:50;6.53;;;3.40;;
72920;SDS011;61064;51.654;5.476;2023-05-14T12:50:15;8.50;;;3.23;;
72920;SDS011;61064;51.654;5.476;2023-05-14T12:52:40;8.43;;;3.23;;
72920;SDS011;61064;51.654;5.476;2023-05-14T12:55:06;8.95;;;3.30;;
72920;SDS011;61064;51.654;5.476;2023-05-14T12:57:36;8.50;;;3.17;;
72920;SDS011;61064;51.654;5.476;2023-05-14T13:00:02;9.27;;;3.63;;
72920;SDS011;61064;51.654;5.476;2023-05-14T13:02:32;8.05;;;3.60;;
72920;SDS011;61064;51.654;5.476;2023-05-14T13:04:58;7.45;;;3.28;;
72920;SDS011;61064;51.654;5.476;2023-05-14T13:07:26;7.40;;;3.58;;
72920;SDS011;61064;51.654;5.476;2023-05-14T13:09:54;7.97;;;3.30;;
72920;SDS011;61064;51.654;5.476;2023-05-14T13:12:19;8.25;;;3.38;;
72920;SDS011;61064;51.654;5.476;2023-05-14T13:14:45;7.27;;;3.07;;
72920;SDS011;61064;51.654;5.476;2023-05-14T13:17:10;6.87;;;3.20;;
72920;SDS011;61064;51.654;5.476;2023-05-14T13:19:35;8.23;;;3.40;;
72920;SDS011;61064;51.654;5.476;2023-05-14T13:22:01;9.43;;;3.37;;
72920;SDS011;61064;51.654;5.476;2023-05-14T13:24:26;8.98;;;3.10;;
72920;SDS011;61064;51.654;5.476;2023-05-14T13:26:51;8.83;;;3.17;;
72920;SDS011;61064;51.654;5.476;2023-05-14T13:29:20;8.00;;;3.10;;
72920;SDS011;61064;51.654;5.476;2023-05-14T13:31:45;7.10;;;2.50;;
72920;SDS011;61064;51.654;5.476;2023-05-14T13:34:11;9.57;;;3.20;;
72920;SDS011;61064;51.654;5.476;2023-05-14T13:36:37;9.32;;;3.88;;
72920;SDS011;61064;51.654;5.476;2023-05-14T13:39:06;8.80;;;3.30;;
72920;SDS011;61064;51.654;5.476;2023-05-14T13:41:34;7.70;;;3.10;;
72920;SDS011;61064;51.654;5.476;2023-05-14T13:44:01;8.18;;;2.97;;
72920;SDS011;61064;51.654;5.476;2023-05-14T13:46:27;10.37;;;3.30;;
72920;SDS011;61064;51.654;5.476;2023-05-14T13:48:52;7.78;;;3.08;;
72920;SDS011;61064;51.654;5.476;2023-05-14T13:51:18;7.00;;;3.17;;
72920;SDS011;61064;51.654;5.476;2023-05-14T13:53:43;7.00;;;2.90;;
72920;SDS011;61064;51.654;5.476;2023-05-14T13:56:08;9.53;;;3.20;;
72920;SDS011;61064;51.654;5.476;2023-05-14T13:58:33;7.97;;;3.27;;
72920;SDS011;61064;51.654;5.476;2023-05-14T14:00:59;8.05;;;3.35;;
72920;SDS011;61064;51.654;5.476;2023-05-14T14:03:24;9.70;;;3.27;;
72920;SDS011;61064;51.654;5.476;2023-05-14T14:05:50;8.30;;;3.17;;
72920;SDS011;61064;51.654;5.476;2023-05-14T14:08:16;8.68;;;3.20;;
72920;SDS011;61064;51.654;5.476;2023-05-14T14:10:42;8.88;;;3.05;;
72920;SDS011;61064;51.654;5.476;2023-05-14T14:13:08;6.77;;;3.00;;
72920;SDS011;61064;51.654;5.476;2023-05-14T14:15:34;8.00;;;2.80;;
72920;SDS011;61064;51.654;5.476;2023-05-14T14:18:00;6.13;;;2.80;;
72920;SDS011;61064;51.654;5.476;2023-05-14T14:20:26;6.90;;;3.10;;
72920;SDS011;61064;51.654;5.476;2023-05-14T14:22:51;7.33;;;2.93;;
72920;SDS011;61064;51.654;5.476;2023-05-14T14:25:16;7.73;;;2.83;;
72920;SDS011;61064;51.654;5.476;2023-05-14T14:27:42;8.03;;;3.03;;
72920;SDS011;61064;51.654;5.476;2023-05-14T14:30:08;10.32;;;2.90;;
72920;SDS011;61064;51.654;5.476;2023-05-14T14:32:40;6.67;;;2.70;;
72920;SDS011;61064;51.654;5.476;2023-05-14T14:35:12;9.90;;;2.95;;
72920;SDS011;61064;51.654;5.476;2023-05-14T14:37:39;11.18;;;3.17;;
72920;SDS011;61064;51.654;5.476;2023-05-14T14:40:06;12.13;;;4.60;;
72920;SDS011;61064;51.654;5.476;2023-05-14T14:42:33;9.98;;;4.25;;